Back to Main Menu

New England District
Project Data

Warner River @ Davisville, Nh

Graphical Hydro Data

Drainage Area 146 sq. mi.
Warning Stage / Flow 6.5 ft / 1140 cfs
Channel Capacity 8 ft / 2340 cfs
Date Time Stage
(ft)
Flow
(cfs)
26 Feb 02:30 4.36 179
26 Feb 02:15 4.36 179
26 Feb 02:00 4.36 179
26 Feb 01:45 4.36 179
26 Feb 01:30 4.36 179
26 Feb 01:15 4.37 181
26 Feb 01:00 4.37 181
26 Feb 00:45 4.37 181
26 Feb 00:30 4.37 181
26 Feb 00:15 4.37 181
26 Feb 00:00 4.37 181
25 Feb 23:45 4.37 181
25 Feb 23:30 4.37 181
25 Feb 23:15 4.37 181
25 Feb 23:00 4.37 181
25 Feb 22:45 4.37 181
25 Feb 22:30 4.38 184
25 Feb 22:15 4.38 184
25 Feb 22:00 4.38 184
25 Feb 21:45 4.38 184
25 Feb 21:30 4.38 184
25 Feb 21:15 4.38 184
25 Feb 21:00 4.38 184
25 Feb 20:45 4.38 184
25 Feb 20:30 4.38 184
25 Feb 20:15 4.38 184
25 Feb 20:00 4.38 184
25 Feb 19:45 4.38 184
25 Feb 19:30 4.38 184
25 Feb 19:15 4.38 184
25 Feb 19:00 4.38 184
25 Feb 18:45 4.38 184
25 Feb 18:30 4.38 184
25 Feb 18:15 4.38 184
25 Feb 18:00 4.38 184
25 Feb 17:45 4.38 184
25 Feb 17:30 4.39 186
25 Feb 17:15 4.39 186
25 Feb 17:00 4.39 186
25 Feb 16:45 4.39 186
25 Feb 16:30 4.39 186
25 Feb 16:15 4.39 186
25 Feb 16:00 4.39 186
25 Feb 15:45 4.39 186
25 Feb 15:30 4.38 184
25 Feb 15:15 4.38 184
25 Feb 15:00 4.38 184
25 Feb 14:45 4.37 181
25 Feb 14:30 4.37 181
25 Feb 14:15 4.36 179
25 Feb 14:00 4.35 177
25 Feb 13:45 4.35 177
25 Feb 13:30 4.34 175
25 Feb 13:15 4.33 172
25 Feb 13:00 4.32 170
25 Feb 12:45 4.31 168
25 Feb 12:30 4.29 164
25 Feb 12:15 4.29 164
25 Feb 12:00 4.28 162
25 Feb 11:45 4.27 160
25 Feb 11:30 4.26 157
25 Feb 11:15 4.26 157
25 Feb 11:00 4.25 155
25 Feb 10:45 4.24 153
25 Feb 10:30 4.22 149
25 Feb 10:15 4.21 147
25 Feb 10:00 4.19 143
25 Feb 09:45 4.19 143
25 Feb 09:30 4.18 141
25 Feb 09:15 4.19 143
25 Feb 09:00 4.19 143
25 Feb 08:45 4.21 147
25 Feb 08:30 4.21 147
25 Feb 08:15 4.20 145
25 Feb 08:00 4.20 145
25 Feb 07:45 4.20 145
25 Feb 07:30 4.19 143
25 Feb 07:15 4.18 141
25 Feb 07:00 4.18 141
25 Feb 06:45 4.18 141
25 Feb 06:30 4.18 141
25 Feb 06:15 4.19 143
25 Feb 06:00 4.19 143
25 Feb 05:45 4.20 145
25 Feb 05:30 4.21 147
25 Feb 05:15 4.23 151
25 Feb 05:00 4.24 153
25 Feb 04:45 4.25 155
25 Feb 04:30 4.27 160
25 Feb 04:15 4.29 164
25 Feb 04:00 4.31 168
25 Feb 03:45 4.32 170
25 Feb 03:30 4.33 172
25 Feb 03:15 4.35 177
25 Feb 03:00
25 Feb 02:45
25 Feb 02:30

Please note: all data presented on this website are for informational purposes only and should be considered preliminary.